地図

経路データ

SID SEASON NUMBER BASIN SUBBASIN NAME ISO_TIME NATURE LAT LON WMO_WIND WMO_PRES WMO_AGENCY TRACK_TYPE DIST2LAND LANDFALL IFLAG USA_AGENCY USA_ATCF_ID USA_LAT USA_LON USA_RECORD USA_STATUS USA_WIND USA_PRES USA_SSHS USA_R34_NE USA_R34_SE USA_R34_SW USA_R34_NW USA_R50_NE USA_R50_SE USA_R50_SW USA_R50_NW USA_R64_NE USA_R64_SE USA_R64_SW USA_R64_NW USA_POCI USA_ROCI USA_RMW USA_EYE TOKYO_LAT TOKYO_LON TOKYO_GRADE TOKYO_WIND TOKYO_PRES TOKYO_R50_DIR TOKYO_R50_LONG TOKYO_R50_SHORT TOKYO_R30_DIR TOKYO_R30_LONG TOKYO_R30_SHORT TOKYO_LAND CMA_LAT CMA_LON CMA_CAT CMA_WIND CMA_PRES HKO_LAT HKO_LON HKO_CAT HKO_WIND HKO_PRES NEWDELHI_LAT NEWDELHI_LON NEWDELHI_GRADE NEWDELHI_WIND NEWDELHI_PRES NEWDELHI_CI NEWDELHI_DP NEWDELHI_POCI REUNION_LAT REUNION_LON REUNION_TYPE REUNION_WIND REUNION_PRES REUNION_TNUM REUNION_CI REUNION_RMW REUNION_R34_NE REUNION_R34_SE REUNION_R34_SW REUNION_R34_NW REUNION_R50_NE REUNION_R50_SE REUNION_R50_SW REUNION_R50_NW REUNION_R64_NE REUNION_R64_SE REUNION_R64_SW REUNION_R64_NW BOM_LAT BOM_LON BOM_TYPE BOM_WIND BOM_PRES BOM_TNUM BOM_CI BOM_RMW BOM_R34_NE BOM_R34_SE BOM_R34_SW BOM_R34_NW BOM_R50_NE BOM_R50_SE BOM_R50_SW BOM_R50_NW BOM_R64_NE BOM_R64_SE BOM_R64_SW BOM_R64_NW BOM_ROCI BOM_POCI BOM_EYE BOM_POS_METHOD BOM_PRES_METHOD NADI_LAT NADI_LON NADI_CAT NADI_WIND NADI_PRES WELLINGTON_LAT WELLINGTON_LON WELLINGTON_WIND WELLINGTON_PRES DS824_LAT DS824_LON DS824_STAGE DS824_WIND DS824_PRES TD9636_LAT TD9636_LON TD9636_STAGE TD9636_WIND TD9636_PRES TD9635_LAT TD9635_LON TD9635_WIND TD9635_PRES TD9635_ROCI NEUMANN_LAT NEUMANN_LON NEUMANN_CLASS NEUMANN_WIND NEUMANN_PRES MLC_LAT MLC_LON MLC_CLASS MLC_WIND MLC_PRES USA_GUST BOM_GUST BOM_GUST_PER REUNION_GUST REUNION_GUST_PER USA_SEAHGT USA_SEARAD_NE USA_SEARAD_SE USA_SEARAD_SW USA_SEARAD_NW STORM_SPEED STORM_DIR
1969027S08161 1969 6 SP MM COLLEEN 1969-01-27 05:00:00 NR -7.50000 161.300 1003 bom main 114 110 ______O_______ -1 -7.50000 161.300 1003 6 271
1969027S08161 1969 6 SP MM COLLEEN 1969-01-27 06:00:00 TS -7.49784 161.193 main 110 100 ______P__O__O_ -1 -7.49569 161.087 1003 -7.50000 161.100 TC 25 1003 -7.50000 161.500 TC 25 1003 11 271
1969027S08161 1969 6 SP MM COLLEEN 1969-01-27 09:00:00 TS -7.48595 160.561 main 101 95 ______P__P__P_ -1 -7.48998 160.441 1003 -7.48566 160.453 TC 25 1003 -7.48019 160.850 TC 25 1003 13 270
1969027S08161 1969 6 SP MM COLLEEN 1969-01-27 11:00:00 TS -7.49301 160.131 1003 bom main 89 85 ______O__P__P_ -1 -7.50000 160.000 1003 -7.49021 160.019 TC 25 1003 -7.48649 160.417 TC 25 1003 13 268
1969027S08161 1969 6 SP EA COLLEEN 1969-01-27 12:00:00 TS -7.50378 159.925 main 78 40 ______P__O__O_ -1 -7.51135 159.775 1002 -7.50000 159.800 TC 25 1003 -7.50000 160.200 TC 25 1003 13 265
1969027S08161 1969 6 SP EA COLLEEN 1969-01-27 15:00:00 TS -7.57406 159.260 main 40 0 ______P__P__P_ -1 -7.57150 159.091 1002 -7.56578 159.138 TC 25 1002 -7.58490 159.550 TC 27 1002 13 262
1969027S08161 1969 6 SP EA COLLEEN 1969-01-27 18:00:00 TS -7.68215 158.601 main 0 0 ______P__P__O_ -1 -7.66797 158.417 1002 -7.67849 158.485 TC 25 1002 -7.70000 158.900 TC 30 1002 13 260
1969027S08161 1969 6 SP EA COLLEEN 1969-01-27 21:00:00 TS -7.80306 157.956 main 55 22 ______P__P__P_ -1 -7.79724 157.784 1002 -7.82692 157.865 TC 25 1002 -7.78502 158.220 TC 27 1002 13 258
1969027S08161 1969 6 SP EA COLLEEN 1969-01-27 23:00:00 TS -7.89850 157.558 1002 bom main 22 22 ______O__P__P_ -1 -7.90000 157.400 1002 -7.94025 157.481 TC 25 1002 -7.85526 157.794 TC 25 1002 12 256
1969027S08161 1969 6 SP EA COLLEEN 1969-01-28 00:00:00 TS -7.94894 157.374 main 22 15 ______P__O__O_ -1 -7.94683 157.221 1001 -8.00000 157.300 TC 25 1002 -7.90000 157.600 TC 25 1002 11 252
1969027S08161 1969 6 SP EA COLLEEN 1969-01-28 03:00:00 TS -8.11632 156.875 main 39 39 ______P__P__P_ -1 -8.10700 156.730 1001 -8.15711 156.782 TC 26 1001 -8.08486 157.113 TC 25 1001 10 248
1969027S08161 1969 6 SP EA COLLEEN 1969-01-28 06:00:00 TS -8.31254 156.442 main 88 88 ______P__P__O_ -1 -8.29928 156.301 1001 -8.33835 156.324 TC 27 1001 -8.30000 156.700 TC 25 1001 9 244
1969027S08161 1969 6 SP EA COLLEEN 1969-01-28 09:00:00 TS -8.52078 156.044 main 134 134 ______P__P__P_ -1 -8.52696 155.925 1001 -8.55042 155.929 TC 28 1001 -8.48498 156.277 TC 25 1001 9 240
1969027S08161 1969 6 SP EA COLLEEN 1969-01-28 11:00:00 TS -8.67804 155.807 1001 bom main 160 160 ______O__P__P_ -1 -8.70000 155.700 1001 -8.71223 155.702 TC 29 1001 -8.62190 156.019 TC 25 1001 9 235
1969027S08161 1969 6 SP EA COLLEEN 1969-01-28 12:00:00 TS -8.76314 155.690 main 174 174 ______P__O__O_ -1 -8.78942 155.569 1000 -8.80000 155.600 TC 30 1001 -8.70000 155.900 TC 25 1001 9 231
1969027S08161 1969 6 SP EA COLLEEN 1969-01-28 15:00:00 TS -9.04802 155.347 main 223 223 ______P__P__P_ -1 -9.08454 155.233 1000 -9.08203 155.276 TC 30 1000 -8.97751 155.533 TC 27 1000 8 224
1969027S08161 1969 6 SP EA COLLEEN 1969-01-28 17:00:00 TS -9.25989 155.197 1000 bom main 246 246 ______O__P__P_ -1 -9.30000 155.100 1000 -9.29062 155.136 TC 30 1000 -9.18905 155.355 TC 29 1000 8 211
1969027S08161 1969 6 SP EA COLLEEN 1969-01-28 18:00:00 TS -9.37137 155.156 main 252 252 ______P__O__O_ -1 -9.41411 155.069 999 -9.40000 155.100 TC 30 1000 -9.30000 155.300 TC 30 1000 7 0
1969027S08161 1969 6 SP EA COLLEEN 1969-01-28 21:00:00 TS -9.72661 155.170 main 270 270 ______P__P__P_ -1 -9.77079 155.106 999 -9.75159 155.131 TC 30 999 -9.65744 155.275 TC 30 999 7 170
1969027S08161 1969 6 SP EA COLLEEN 1969-01-28 23:00:00 TS -9.95992 155.261 999 bom main 282 282 ______O__P__P_ -1 -10.0000 155.200 999 -9.98764 155.235 TC 30 999 -9.89211 155.348 TC 30 999 7 158
1969027S08161 1969 6 SP EA COLLEEN 1969-01-29 00:00:00 TS -10.0677 155.314 main 290 290 ______P__O__O_ -1 -10.1030 155.242 998 -10.1000 155.300 TC 30 999 -10.0000 155.400 TC 30 999 7 150
1969027S08161 1969 6 SP EA COLLEEN 1969-01-29 03:00:00 TS -10.3484 155.488 main 291 291 ______P__P__P_ -1 -10.3833 155.420 996 -10.3969 155.473 TC 33 997 -10.2650 155.570 TC 35 997 7 143
1969027S08161 1969 6 SP EA COLLEEN 1969-01-29 06:00:00 TS -10.5955 155.716 main 305 299 ______P__P__O_ -1 -10.6302 155.655 994 -10.6563 155.694 TC 37 995 -10.5000 155.800 TC 40 995 7 136
1969027S08161 1969 6 SP EA COLLEEN 1969-01-29 09:00:00 TS -10.8335 155.968 main 309 309 ______P__P__P_ -1 -10.8556 155.920 993 -10.8875 155.942 TC 41 993 -10.7575 156.043 TC 42 993 7 133
1969027S08161 1969 6 SP EA COLLEEN 1969-01-29 11:00:00 TS -10.9843 156.143 992 bom main 325 321 ______O__P__P_ -1 -11.0000 156.100 992 -11.0307 156.114 TC 43 992 -10.9224 156.214 TC 44 992 7 132
1969027S08161 1969 6 SP EA COLLEEN 1969-01-29 12:00:00 TS -11.0614 156.226 main 330 324 ______P__O__O_ -1 -11.0841 156.179 991 -11.1000 156.200 TC 45 992 -11.0000 156.300 TC 45 992 7 133
1969027S08161 1969 6 SP EA COLLEEN 1969-01-29 15:00:00 TS -11.2805 156.465 main 334 334 ______P__P__P_ -1 -11.3212 156.428 989 -11.3130 156.431 TC 47 990 -11.2074 156.535 TC 47 990 6 129
1969027S08161 1969 6 SP EA COLLEEN 1969-01-29 18:00:00 TS -11.4667 156.733 988 bom main 346 339 ______O__O__O_ -1 -11.5000 156.700 988 -11.5000 156.700 TC 50 988 -11.4000 156.800 TC 50 988 7 121
1969027S08161 1969 6 SP EA COLLEEN 1969-01-29 21:00:00 TS -11.6242 157.057 988 bom main 344 344 ______O__P__P_ -1 -11.6000 157.000 988 -11.6575 157.035 TC 50 987 -11.6150 157.135 TC 50 987 8 118
1969027S08161 1969 6 SP EA COLLEEN 1969-01-29 23:00:00 TS -11.7658 157.319 987 bom main 353 321 ______O__P__P_ -1 -11.8000 157.300 987 -11.7526 157.278 TC 50 987 -11.7448 157.378 TC 50 987 12 93
1969027S08161 1969 6 SP EA COLLEEN 1969-01-30 00:00:00 TS -11.6573 157.655 main 313 275 O_____P__OO_O_ jtwc_sh SH181969 -11.0000 158.500 -1 -11.8651 157.433 986 -11.8000 157.400 TC 50 987 -11.0000 158.500 2 -11.8000 157.500 TC 50 987 13 87
1969027S08161 1969 6 SP EA COLLEEN 1969-01-30 03:00:00 TS -11.7241 158.182 main 275 265 P_____P__PP_P_ SH181969 -11.3002 158.967 -1 -11.9526 157.777 986 -11.9499 157.743 TC 50 986 -11.3120 158.984 2 -11.8999 157.843 TC 52 986 11 99
1969027S08161 1969 6 SP EA COLLEEN 1969-01-30 05:00:00 TS -11.7902 158.555 986 bom main 259 254 P_____O__PP_P_ SH181969 -11.5001 159.262 -1 -12.0000 158.000 986 -12.0500 157.978 TC 50 986 -11.5174 159.286 2 -11.9605 158.078 TC 54 986 12 100
1969027S08161 1969 6 SP EA COLLEEN 1969-01-30 06:00:00 TS -11.8295 158.776 main 249 249 O_____P__OP_O_ jtwc_sh SH181969 -11.6000 159.400 -1 -12.0580 158.129 985 -12.1000 158.100 TC 50 986 -11.6188 159.425 2 -12.0000 158.200 TC 55 986 10 116
1969027S08161 1969 6 SP EA COLLEEN 1969-01-30 09:00:00 TS -12.0713 159.154 main 265 263 P_____P__PP_P_ SH181969 -11.9000 159.760 -1 -12.2641 158.532 984 -12.2475 158.492 TC 52 985 -11.9162 159.779 2 -12.2000 158.600 TC 55 985 9 125
1969027S08161 1969 6 SP EA COLLEEN 1969-01-30 11:00:00 TS -12.2325 159.375 984 bom main 272 272 P_____O__PP_P_ SH181969 -12.1000 159.936 -1 -12.4000 158.800 984 -12.3481 158.764 TC 54 984 -12.1071 159.944 2 -12.3395 158.870 TC 55 984 8 127
1969027S08161 1969 6 SP EA COLLEEN 1969-01-30 12:00:00 TS -12.3065 159.470 main 281 281 O_____P__OO_O_ jtwc_sh SH181969 -12.2000 160.000 -1 -12.4393 158.920 984 -12.4000 158.900 TC 55 984 -12.2000 160.000 2 -12.4000 159.000 TC 55 984 6 132
1969027S08161 1969 6 SP EA COLLEEN 1969-01-30 15:00:00 TS -12.5049 159.689 main 289 289 P_____P__PP_P_ SH181969 -12.4999 160.080 -1 -12.5211 159.261 984 -12.5377 159.290 TC 55 984 -12.4707 160.070 2 -12.4999 159.350 TC 55 984 6 135
1969027S08161 1969 6 SP EA COLLEEN 1969-01-30 18:00:00 TS -12.7074 159.876 main 292 292 O_____P__PP_O_ jtwc_sh SH181969 -12.8000 160.100 -1 -12.6136 159.607 984 -12.6849 159.680 TC 55 984 -12.7461 160.070 2 -12.6000 159.700 TC 55 984 6 139
1969027S08161 1969 6 SP MM COLLEEN 1969-01-30 21:00:00 TS -12.9408 160.083 984 bom main 299 299 P_____O__PP_P_ SH181969 -13.0847 160.110 -1 -12.8000 160.000 984 -12.8646 160.080 TC 55 984 -13.0485 160.111 2 -12.7624 160.085 TC 55 984 7 138
1969027S08161 1969 6 SP MM COLLEEN 1969-01-30 23:00:00 TS -13.1296 160.272 984 bom main 304 304 P_____O__PP_P_ SH181969 -13.2884 160.202 -1 -13.0000 160.300 984 -13.0139 160.357 TC 55 984 -13.2760 160.214 2 -12.9109 160.358 TC 55 984 8 134
1969027S08161 1969 6 SP MM COLLEEN 1969-01-31 00:00:00 TS -13.2328 160.392 main 308 308 O_____P__OO_O_ jtwc_sh SH181969 -13.4000 160.300 -1 -13.0967 160.451 983 -13.1000 160.500 TC 55 984 -13.4000 160.300 2 -13.0000 160.500 TC 55 984 11 126
1969027S08161 1969 6 SP MM COLLEEN 1969-01-31 03:00:00 TS -13.5734 160.891 main 328 325 P_____P__PP_P_ SH181969 -13.7628 160.868 -1 -13.3881 160.908 983 -13.3927 160.949 TC 55 983 -13.8140 160.820 2 -13.3199 160.935 TC 57 983 13 125
1969027S08161 1969 6 SP MM COLLEEN 1969-01-31 06:00:00 TS -13.9743 161.482 main 359 359 O_____P__PP_O_ jtwc_sh SH181969 -14.2000 161.600 -1 -13.7242 161.377 982 -13.7442 161.420 TC 55 983 -14.2773 161.493 2 -13.7000 161.400 TC 60 982 14 126
1969027S08161 1969 6 SP MM COLLEEN 1969-01-31 08:00:00 TS -14.2785 161.876 982 bom main 391 391 P_____O__PP_P_ SH181969 -14.5484 162.055 -1 -14.0000 161.700 982 -14.0083 161.742 TC 55 982 -14.6070 161.978 2 -13.9587 161.726 TC 60 982 15 129
1969027S08161 1969 6 SP MM COLLEEN 1969-01-31 09:00:00 TS -14.4420 162.074 main 403 403 P_____P__PP_P_ SH181969 -14.7350 162.280 -1 -14.1641 161.865 982 -14.1486 161.905 TC 55 982 -14.7767 162.220 2 -14.0924 161.893 TC 60 982 15 131
1969027S08161 1969 6 SP MM COLLEEN 1969-01-31 11:00:00 TS -14.7769 162.460 982 bom main 430 419 P_____O__PP_P_ SH181969 -15.1145 162.706 -1 -14.5000 162.200 982 -14.4447 162.234 TC 55 982 -15.1236 162.685 2 -14.3640 162.231 TC 60 982 15 132
1969027S08161 1969 6 SP MM COLLEEN 1969-01-31 12:00:00 TS -14.9376 162.643 main 419 369 O_____P__OO_O_ jtwc_sh SH181969 -15.3000 162.900 -1 -14.6257 162.359 981 -14.6000 162.400 TC 55 982 -15.3000 162.900 2 -14.5000 162.400 TC 60 982 13 132
1969027S08161 1969 6 SP MM COLLEEN 1969-01-31 15:00:00 TS -15.3678 163.129 main 371 343 P_____P__PP_P_ SH181969 -15.7922 163.388 -1 -14.9664 162.838 980 -15.0436 162.893 TC 57 980 -15.7951 163.395 2 -14.8172 162.871 TC 62 980 13 135
1969027S08161 1969 6 SP MM COLLEEN 1969-01-31 17:00:00 TS -15.6980 163.444 979 bom main 344 324 P_____O__PP_P_ SH181969 -16.1244 163.666 -1 -15.3000 163.200 979 -15.3969 163.229 TC 59 979 -16.1388 163.689 2 -15.1037 163.211 TC 64 979 14 139
1969027S08161 1969 6 SP MM COLLEEN 1969-01-31 18:00:00 TS -15.8960 163.608 main 326 294 O_____P__OP_O_ jtwc_sh SH181969 -16.3000 163.800 -1 -15.5593 163.423 978 -15.6000 163.400 TC 60 979 -16.3164 163.827 2 -15.3000 163.400 TC 65 979 17 144
1969027S08161 1969 6 SP MM COLLEEN 1969-01-31 21:00:00 TS -16.6142 164.143 main 299 288 P_____P__PP_P_ SH181969 -16.8699 164.208 -1 -16.5231 164.150 976 -16.3598 163.967 TC 62 976 -16.8796 164.221 2 -16.1829 164.106 TC 67 977 18 146
1969027S08161 1969 6 SP MM COLLEEN 1969-01-31 23:00:00 TS -17.1456 164.493 975 bom main 291 291 P_____O__PP_P_ SH181969 -17.2833 164.469 -1 -17.2000 164.600 975 -16.9549 164.359 TC 64 975 -17.2859 164.473 2 -16.8661 164.584 TC 69 975 19 148
1969027S08161 1969 6 SP MM COLLEEN 1969-02-01 00:00:00 TS -17.4102 164.656 main 293 251 O_____P__PO_O_ jtwc_sh SH181969 -17.5000 164.600 -1 -17.4919 164.782 974 -17.2695 164.554 TC 65 974 -17.5000 164.600 2 -17.2000 164.800 TC 70 975 18 150
1969027S08161 1969 6 SP MM COLLEEN 1969-02-01 03:00:00 TS -18.1916 165.114 main 243 202 P_____P__PP_P_ SH181969 -18.1699 165.000 -1 -18.3360 165.236 971 -18.2443 165.114 TC 67 972 -18.1724 165.039 2 -18.0571 165.296 TC 72 972 18 152
1969027S08161 1969 6 SP MM COLLEEN 1969-02-01 05:00:00 TS -18.7264 165.397 970 bom main 202 179 P_____O__PP_P_ SH181969 -18.6500 165.267 -1 -18.9000 165.500 970 -18.8887 165.449 TC 69 970 -18.6536 165.327 2 -18.6160 165.569 TC 74 970 18 154
1969027S08161 1969 6 SP MM COLLEEN 1969-02-01 06:00:00 TS -19.0020 165.539 main 179 133 O_____P__OP_O_ jtwc_sh SH181969 -18.9000 165.400 -1 -19.2088 165.664 969 -19.2000 165.600 TC 70 970 -18.9030 165.467 2 -18.9000 165.700 TC 75 970 19 154
1969027S08161 1969 6 SP MM COLLEEN 1969-02-01 09:00:00 TS -19.8398 165.968 main 139 106 P_____P__PP_P_ SH181969 -19.6626 165.823 -1 -20.1383 166.115 967 -20.0710 166.019 TC 72 968 -19.6819 165.861 2 -19.8226 166.167 TC 77 968 18 156
1969027S08161 1969 6 SP MM COLLEEN 1969-02-01 11:00:00 TS -20.3993 166.200 966 bom main 106 98 P_____O__PP_P_ SH181969 -20.2110 166.084 -1 -20.7000 166.300 966 -20.6302 166.226 TC 74 966 -20.2235 166.095 2 -20.4203 166.415 TC 79 966 18 160
1969027S08161 1969 6 SP MM COLLEEN 1969-02-01 12:00:00 TS -20.6725 166.288 main 91 22 O_____P__OO_O_ jtwc_sh SH181969 -20.5000 166.200 -1 -20.9350 166.329 965 -20.9000 166.300 TC 75 966 -20.5000 166.200 2 -20.7000 166.500 TC 80 966 17 169
1969027S08161 1969 6 SP MM COLLEEN 1969-02-01 15:00:00 TS -21.4984 166.427 964 bom main 22 0 P_____O__PP_P_ SH181969 -21.4499 166.488 -1 -21.6000 166.300 964 -21.6647 166.352 TC 77 964 -21.4111 166.427 2 -21.4147 166.509 TC 80 964 17 172
1969027S08161 1969 6 SP MM COLLEEN 1969-02-01 17:00:00 TS -22.0570 166.494 963 bom main 0 0 P_____O__PP_P_ SH181969 -22.0926 166.636 -1 -22.1000 166.300 963 -22.1551 166.366 TC 79 963 -22.0361 166.547 2 -21.8656 166.482 TC 80 963 17 173
1969027S08161 1969 6 SP MM COLLEEN 1969-02-01 18:00:00 TS -22.3358 166.543 main 10 10 O_____P__OP_O_ jtwc_sh SH181969 -22.4000 166.700 -1 -22.3689 166.356 963 -22.4000 166.400 TC 80 963 -22.3460 166.603 2 -22.1000 166.500 TC 80 963 17 167
1969027S08161 1969 6 SP MM COLLEEN 1969-02-01 21:00:00 TS -23.1836 166.776 main 89 89 P_____P__PP_P_ SH181969 -23.2747 166.821 -1 -23.2014 166.714 963 -23.1877 166.719 TC 80 963 -23.2330 166.777 2 -22.9302 166.804 TC 82 963 17 164
1969027S08161 1969 6 SP MM COLLEEN 1969-02-01 23:00:00 TS -23.6942 166.968 963 bom main 145 145 P_____O__PP_P_ SH181969 -23.7810 166.921 -1 -23.7000 167.000 963 4 -23.6786 166.979 TC 80 963 -23.7622 166.917 2 -23.4624 167.070 TC 84 963 16 160
1969027S08161 1969 6 SP MM COLLEEN 1969-02-02 00:00:00 TS -23.9173 167.070 main 168 168 O_____P__OO_O_ jtwc_sh SH181969 -24.0000 167.000 -1 -23.9035 167.122 963 -23.9000 167.100 TC 80 963 -24.0000 167.000 2 -23.7000 167.200 TC 85 963 13 150
1969027S08161 1969 6 SP MM COLLEEN 1969-02-02 03:00:00 TS -24.4461 167.449 main 229 229 P_____P__PP_P_ SH181969 -24.5103 167.420 -1 -24.4072 167.453 963 -24.4450 167.403 TC 80 963 -24.5514 167.446 2 -24.2525 167.553 TC 82 963 12 145
1969027S08161 1969 6 SP MM COLLEEN 1969-02-02 05:00:00 TS -24.7336 167.692 964 bom main 269 269 P_____O__PP_P_ SH181969 -24.7742 167.746 -1 -24.7000 167.600 964 -24.7521 167.550 TC 80 963 -24.8465 167.773 2 -24.5548 167.737 TC 80 963 11 144
1969027S08161 1969 6 SP MM COLLEEN 1969-02-02 06:00:00 TS -24.8720 167.795 main 294 294 O_____P__OP_O_ jtwc_sh SH181969 -24.9000 167.900 -1 -24.8533 167.639 964 -24.9000 167.600 TC 80 964 -24.9789 167.932 2 -24.7000 167.800 TC 80 964 10 151
1969027S08161 1969 6 SP MM COLLEEN 1969-02-02 09:00:00 TS -25.2905 168.032 main 342 342 P_____P__PP_P_ SH181969 -25.3000 168.340 -1 -25.2983 167.647 965 -25.3532 167.653 TC 77 965 -25.3417 168.352 2 -25.1499 167.860 TC 80 965 9 158
1969027S08161 1969 6 SP MM COLLEEN 1969-02-02 11:00:00 TS -25.5668 168.114 966 bom main 377 377 P_____O__PP_P_ SH181969 -25.5636 168.545 -1 -25.6000 167.600 966 -25.6494 167.625 TC 75 965 -25.5774 168.543 2 -25.4469 167.827 TC 80 965 9 169
1969027S08161 1969 6 SP MM COLLEEN 1969-02-02 12:00:00 TS -25.7117 168.132 main 388 388 O_____P__OO_O_ jtwc_sh SH181969 -25.7000 168.600 -1 -25.7705 167.595 966 -25.8000 167.600 TC 75 966 -25.7000 168.600 2 -25.6000 167.800 TC 80 966 9 182
1969027S08161 1969 6 SP MM COLLEEN 1969-02-02 15:00:00 TS -26.1933 168.084 main 441 441 P_____P__PP_P_ SH181969 -26.1423 168.555 -1 -26.3146 167.559 968 -26.3092 167.555 TC 73 967 -26.1665 168.564 2 -26.0850 167.715 TC 77 967 10 191
1969027S08161 1969 6 SP MM COLLEEN 1969-02-02 18:00:00 TS -26.6909 167.914 main 491 491 O_____P__PP_O_ jtwc_sh SH181969 -26.6000 168.300 -1 -26.8713 167.480 970 -26.8372 167.462 TC 72 969 -26.6368 168.343 2 -26.6000 167.600 TC 75 969 11 199
1969027S08161 1969 6 SP MM COLLEEN 1969-02-02 21:00:00 TS -27.1886 167.693 main 542 542 P_____P__PP_P_ SH181969 -27.0650 167.988 -1 -27.3938 167.338 971 -27.3467 167.314 TC 71 971 -27.0887 168.001 2 -27.1724 167.530 TC 72 971 11 204
1969027S08161 1969 6 SP MM COLLEEN 1969-02-02 23:00:00 TS -27.4976 167.506 973 bom main 573 573 P_____O__PP_P_ SH181969 -27.3614 167.733 -1 -27.7000 167.200 973 -27.6574 167.179 TC 70 972 -27.3688 167.736 2 -27.5368 167.456 TC 70 972 10 210
1969027S08161 1969 6 SP MM COLLEEN 1969-02-03 00:00:00 TS -27.6388 167.401 main 583 583 O_____P__OO_O_ jtwc_sh SH181969 -27.5000 167.600 -1 -27.8329 167.109 973 -27.8000 167.100 TC 70 973 -27.5000 167.600 2 -27.7000 167.400 TC 70 973 10 218
1969027S08161 1969 6 SP MM COLLEEN 1969-02-03 03:00:00 TS -28.0099 167.061 main 625 625 P_____P__PP_P_ SH181969 -27.8799 167.207 -1 -28.1876 166.798 974 -28.1730 166.801 TC 67 974 -27.8515 167.235 2 -28.0877 167.115 TC 67 974 9 221
1969027S08161 1969 6 SP MM COLLEEN 1969-02-03 05:00:00 TS -28.2259 166.822 976 bom main 647 647 P_____O__PP_P_ SH181969 -28.1000 166.936 -1 -28.4000 166.600 976 -28.3945 166.594 TC 65 975 -28.0614 166.968 2 -28.2996 166.899 TC 65 975 9 224
1969027S08161 1969 6 SP MM COLLEEN 1969-02-03 06:00:00 TS -28.3280 166.709 main 659 659 O_____P__OP_O_ jtwc_sh SH181969 -28.2000 166.800 -1 -28.5075 166.526 976 -28.5000 166.500 TC 65 976 -28.1604 166.830 2 -28.4000 166.800 TC 65 976 8 223
1969027S08161 1969 6 SP MM COLLEEN 1969-02-03 09:00:00 TS -28.6179 166.406 main 693 693 P_____P__PP_P_ SH181969 -28.4649 166.392 -1 -28.8110 166.336 978 -28.8128 166.298 TC 62 978 -28.4390 166.410 2 -28.7148 166.607 TC 62 978 8 223
1969027S08161 1969 6 SP MM COLLEEN 1969-02-03 11:00:00 TS -28.7955 166.206 980 bom main 716 716 P_____O__PP_P_ SH181969 -28.6219 166.127 -1 -29.0000 166.200 980 -29.0067 166.171 TC 60 979 -28.6142 166.134 2 -28.9082 166.478 TC 60 979 8 225
1969027S08161 1969 6 SP MM COLLEEN 1969-02-03 12:00:00 TS -28.8818 166.101 main 728 728 O_____P__OO_O_ jtwc_sh SH181969 -28.7000 166.000 -1 -29.0907 166.108 980 -29.1000 166.100 TC 60 980 -28.7000 166.000 2 -29.0000 166.400 TC 60 980 8 228
1969027S08161 1969 6 SP MM COLLEEN 1969-02-03 15:00:00 TS -29.1393 165.776 main 753 753 P_____P__PP_P_ SH181969 -28.9499 165.642 -1 -29.3459 165.784 980 -29.3632 165.795 TC 58 980 -28.9697 165.723 2 -29.2576 166.072 TC 60 980 8 229
1969027S08161 1969 6 SP MM COLLEEN 1969-02-03 18:00:00 TS -29.3867 165.433 main 792 792 O_____P__PP_O_ jtwc_sh SH181969 -29.2000 165.300 -1 -29.5872 165.415 981 -29.6075 165.434 TC 57 981 -29.2254 165.447 2 -29.5000 165.700 TC 60 981 8 230
1969027S08161 1969 6 SP MM COLLEEN 1969-02-03 21:00:00 TS -29.6334 165.110 main 819 819 P_____P__PP_P_ SH181969 -29.4559 165.062 -1 -29.8298 165.038 981 -29.8479 165.056 TC 56 981 -29.4686 165.098 2 -29.7425 165.342 TC 60 981 8 231
1969027S08161 1969 6 SP MM COLLEEN 1969-02-03 23:00:00 TS -29.7986 164.853 982 bom main 845 845 P_____O__PP_P_ SH181969 -29.6213 164.802 -1 -30.0000 164.800 982 -30.0137 164.814 TC 55 981 -29.6242 164.787 2 -29.9109 165.111 TC 60 981 9 235
1969027S08161 1969 6 SP MM COLLEEN 1969-02-04 00:00:00 TS -29.8830 164.697 main 861 861 O_____P__OO_O_ jtwc_sh SH181969 -29.7000 164.600 -1 -30.0982 164.685 982 -30.1000 164.700 TC 55 982 -29.7000 164.600 2 -30.0000 165.000 TC 60 982 12 245
1969027S08161 1969 6 SP MM COLLEEN 1969-02-04 03:00:00 TS -30.1382 164.022 main 901 901 P_____P__PP_P_ SH181969 -29.9101 163.553 -1 -30.4060 164.351 984 -30.3758 164.397 TC 52 984 -29.9348 163.594 2 -30.2924 164.685 TC 57 984 13 247
1969027S08161 1969 6 SP MM COLLEEN 1969-02-04 06:00:00 TS -30.3898 163.311 main 950 897 O_____P__PP_O_ jtwc_sh SH181969 -30.1000 162.400 -1 -30.7187 164.052 986 -30.6723 164.139 TC 50 986 -30.1479 162.476 2 -30.6000 164.400 TC 55 986 13 247
1969027S08161 1969 6 SP MM COLLEEN 1969-02-04 09:00:00 TS -30.6293 162.652 main 897 864 P_____P__PP_P_ SH181969 -30.3069 161.438 -1 -31.0177 163.813 988 -30.9828 163.912 TC 47 988 -30.3352 161.519 2 -30.9150 164.105 TC 50 988 11 246
1969027S08161 1969 6 SP MM COLLEEN 1969-02-04 11:00:00 TS -30.7696 162.320 990 bom main 864 854 P_____O__PP_P_ SH181969 -30.4386 161.059 -1 -31.2000 163.700 990 -31.1939 163.770 TC 45 989 -30.4472 161.107 2 -31.1114 163.952 TC 46 989 9 244
1969027S08161 1969 6 SP MM COLLEEN 1969-02-04 12:00:00 TS -30.8208 162.188 main 854 847 O_____P__OO_O_ jtwc_sh SH181969 -30.5000 161.000 -1 -31.2842 163.660 990 -31.3000 163.700 TC 45 990 -30.5000 161.000 2 -31.2000 163.900 TC 45 990 3 185
1969027S08161 1969 6 SP MM COLLEEN 1969-02-04 15:00:00 TS -30.9745 162.310 main 868 868 P_____P___P_P_ SH181969 -30.6649 161.417 -1 -31.5110 163.598 990 TC -30.6169 161.259 2 -31.4149 163.862 TC 45 990 6 119
1969027S08161 1969 6 SP MM COLLEEN 1969-02-04 18:00:00 TS -31.0951 162.774 main 917 917 O_____P___P_O_ jtwc_sh SH181969 -30.8000 162.300 -1 -31.7079 163.605 990 TC -30.7208 161.975 2 -31.6000 163.900 TC 45 990 9 105
1969027S08161 1969 6 SP MM COLLEEN 1969-02-04 21:00:00 TS -31.1973 163.286 main 941 907 P_____P___P_P_ SH181969 -30.8775 163.121 -1 -31.8861 163.655 990 TC -30.8385 162.954 2 -31.8515 163.765 TC 45 990 10 101
1969027S08161 1969 6 SP MM COLLEEN 1969-02-04 23:00:00 TS -31.2481 163.716 990 bom main 907 890 P_____O___P_P_ SH181969 -30.9464 163.707 -1 -32.0000 163.700 990 TC -30.9392 163.656 2 -31.9725 163.797 TC 45 990 12 95
1969027S08161 1969 6 SP MM COLLEEN 1969-02-05 00:00:00 TS -31.2500 163.975 main 881 804 O_________O_O_ jtwc_sh SH181969 -31.0000 164.000 -1 -31.0000 164.000 2 -32.0000 163.900 TC 45 990 14 100
1969027S08161 1969 6 SP MM COLLEEN 1969-02-05 03:00:00 TS -31.4171 164.799 main 804 726 P_________P_P_ SH181969 -31.2695 164.850 -1 -31.2856 164.822 2 -31.8439 164.675 TC 40 15 104
1969027S08161 1969 6 SP MM COLLEEN 1969-02-05 06:00:00 TS -31.6285 165.693 main 718 636 O_________P_O_ jtwc_sh SH181969 -31.6000 165.700 -1 -31.6142 165.673 2 -31.7000 165.700 TC 35 16 109
1969027S08161 1969 6 SP MM COLLEEN 1969-02-05 09:00:00 TS -31.9267 166.554 main 627 545 P_________P_P_ SH181969 -31.9296 166.557 -1 -31.9356 166.538 2 -31.9119 166.563 TC 35 16 112
1969027S08161 1969 6 SP MM COLLEEN 1969-02-05 12:00:00 TS -32.2000 167.400 main 545 483 O_________O_O_ jtwc_sh SH181969 -32.2000 167.400 -1 -32.2000 167.400 2 -32.2000 167.400 TC 35 14 106
1969027S08161 1969 6 SP MM COLLEEN 1969-02-05 15:00:00 TS -32.3322 168.194 main 475 414 P_________P_P_ SH181969 -32.3367 168.201 -1 -32.3263 168.172 2 -32.3292 168.201 TC 35 14 98
1969027S08161 1969 6 SP MM COLLEEN 1969-02-05 18:00:00 TS -32.3986 168.986 main 407 356 O_________P_O_ jtwc_sh SH181969 -32.4000 169.000 -1 -32.3945 168.944 2 -32.4000 169.000 TC 35 14 95
1969027S08161 1969 6 SP MM COLLEEN 1969-02-05 21:00:00 TS -32.4466 169.791 main 349 289 P_________P_P_ SH181969 -32.4487 169.806 -1 -32.4409 169.769 2 -32.4482 169.783 TC 35 14 94
1969027S08161 1969 6 SP MM COLLEEN 1969-02-06 00:00:00 TS -32.5000 170.700 main 283 227 O_________O_O_ jtwc_sh SH181969 -32.5000 170.700 -1 -32.5000 170.700 2 -32.5000 170.700 TC 35 17 95
1969027S08161 1969 6 SP MM COLLEEN 1969-02-06 03:00:00 TS -32.5855 171.779 main 224 200 P_________P_P_ SH181969 -32.5839 171.725 -1 -32.5885 171.769 2 -32.5856 171.898 TC 35 19 96
1969027S08161 1969 6 SP MM COLLEEN 1969-02-06 06:00:00 TS -32.6985 172.988 main 200 195 O_________P_O_ jtwc_sh SH181969 -32.7000 172.900 -1 -32.6939 172.953 2 -32.7000 173.200 TC 35 21 97
1969027S08161 1969 6 SP MM COLLEEN 1969-02-06 09:00:00 TS -32.8321 174.252 main 224 224 P_________P_P_ SH181969 -32.8345 174.205 -1 -32.8273 174.236 2 -32.8323 174.363 TC 35 22 98
1969027S08161 1969 6 SP MM COLLEEN 1969-02-06 12:00:00 TS -33.0000 175.600 main 276 276 O_________O_O_ jtwc_sh SH181969 -33.0000 175.600 -1 -33.0000 175.600 2 -33.0000 175.600 TC 35 23 99
1969027S08161 1969 6 SP MM COLLEEN 1969-02-06 15:00:00 TS -33.1755 176.985 main 340 340 P_________P_P_ SH181969 -33.1752 176.964 -1 -33.1744 176.955 2 -33.1772 177.056 TC 35 24 99
1969027S08161 1969 6 SP MM COLLEEN 1969-02-06 18:00:00 TS -33.3977 178.449 main 428 428 O_________P_O_ jtwc_sh SH181969 -33.4000 178.400 -1 -33.3909 178.395 2 -33.4000 178.600 TC 35 25 101
1969027S08161 1969 6 SP MM COLLEEN 1969-02-06 21:00:00 TS -33.6659 179.964 main 460 460 P_________P_P_ SH181969 -33.6679 179.942 -1 -33.6622 179.936 2 -33.6656 -179.965 TC 35 27 103
1969027S08161 1969 6 SP MM COLLEEN 1969-02-07 00:00:00 TS -34.0000 181.600 main 492 492 O_________O_O_ jtwc_sh SH181969 -34.0000 -178.400 -1 -34.0000 -178.400 2 -34.0000 -178.400 TC 35 29 104
1969027S08161 1969 6 SP MM COLLEEN 1969-02-07 03:00:00 TS -34.3779 183.385 main 565 565 P_________P_P_ SH181969 -34.3666 -176.672 -1 -34.4085 -176.600 2 -34.3700 -176.516 TC 35 32 105
1969027S08161 1969 6 SP MM COLLEEN 1969-02-07 06:00:00 TS -34.8160 185.305 main 680 680 O_________P_O_ jtwc_sh SH181969 -34.8000 -174.800 -1 -34.8641 -174.680 2 -34.8000 -174.500 TC 35 34 106
1969027S08161 1969 6 SP MM COLLEEN 1969-02-07 09:00:00 TS -35.3034 187.321 main 820 820 P_________P_P_ SH181969 -35.2934 -172.757 -1 -35.3374 -172.668 2 -35.2894 -172.533 TC 35 35 106
1969027S08161 1969 6 SP MM COLLEEN 1969-02-07 12:00:00 TS -35.8000 189.400 main 982 O_________O_O_ jtwc_sh SH181969 -35.8000 -170.600 -1 -35.8000 -170.600 2 -35.8000 -170.600 TC 35 35 106

デジタル台風データ・検索

IBTrACS Databaseについて

本データベースは、米国NOAAが公開する1842年以降の世界の熱帯低気圧のベストトラックデータアーカイブInternational Best Track Archive for Climate Stewardship (IBTrACS)を、ウェブで閲覧しやすい形式に変換したものです。

最終更新日:2021-11-26